Terminal Aerodrome Forecast
Issued by NWS Atlanta, GA

Home | Current Version | Previous Version | Text Only | Print | Product List | Glossary On
Versions: 1 2 3 4 5 6 7 8 9 10 11 12 13 14 15 16 17 18 19 20 21 22 23 24 25 26 27 28 29 30 31 32 33 34 35 36 37 38 39
090
FTUS42 KFFC 241720
TAFATL
TAF
KATL 241720Z 2418/2524 15012KT P6SM FEW050 SCT100 SCT250
     FM250000 13007KT P6SM FEW150 SCT250
     FM250900 14006KT P6SM SCT012 BKN022
     FM251500 16011KT P6SM BKN035
     FM251900 16011KT P6SM BKN040 PROB30 2522/2524 -TSRA BKN035CB=

USA.gov is the U.S. government's official web portal to all federal, state and local government web resources and services.